KRYY/RYY METAR and TAF weather

Enter ICAO airport designator
Station Type Date Time Source
KRYY METAR 2021/09/27 06:50 UTC NOAA

KRYY 270650Z AUTO 00000KT 10SM CLR 14/13 A3015 RMK AO2 SLP202 T01440133 $


Station Type Date Time Source
KRYY Decoded METAR 2021/09/27 06:50 UTC NOAA

Marietta, Cobb County-McCollum Field Airport, GA, United States (KRYY) 34-00-47N 084-35-55W
Sep 27, 2021 - 02:50 AM EDT / 2021.09.27 0650 UTC
Wind: Calm:0
Visibility: 10 mile(s):0
Sky conditions: clear
Temperature: 57.9 F (14.4 C)
Dew Point: 55.9 F (13.3 C)
Relative Humidity: 93%
Pressure (altimeter): 30.15 in. Hg (1020 hPa)
ob: KRYY 270650Z AUTO 00000KT 10SM CLR 14/13 A3015 RMK AO2 SLP202 T01440133
cycle: 7

Station Type Date Time Source
KRYY TAF 2021/09/27 06:36 UTC NOAA

TAF KRYY 270535Z 2706/2806 00000KT P6SM SKC
FM271600 26004KT P6SM FEW050
FM280000 00000KT P6SM SKC

Example: see airport list